createdAt,value
2019-01-11T00:00:03.381Z,-2.9
2019-01-11T00:01:02.471Z,-2.9
2019-01-11T00:02:03.509Z,-2.9
2019-01-11T00:03:03.574Z,-2.9
2019-01-11T00:04:03.174Z,-2.9
2019-01-11T00:05:03.651Z,-2.9
2019-01-11T00:06:02.668Z,-2.9
2019-01-11T00:07:02.867Z,-2.9
2019-01-11T00:08:02.816Z,-2.9
2019-01-11T00:09:03.285Z,-2.9
2019-01-11T00:10:03.533Z,-2.9
2019-01-11T00:11:03.505Z,-3
2019-01-11T00:12:02.711Z,-2.9
2019-01-11T00:13:03.526Z,-2.9
2019-01-11T00:14:03.360Z,-2.9
2019-01-11T00:15:02.914Z,-2.9
2019-01-11T00:16:02.818Z,-2.9
2019-01-11T00:17:03.236Z,-2.9
2019-01-11T00:18:03.331Z,-2.8
2019-01-11T00:19:07.435Z,-2.9
2019-01-11T00:20:04.044Z,-2.9
2019-01-11T00:21:03.188Z,-2.9
2019-01-11T00:22:02.773Z,-2.9
2019-01-11T00:23:02.810Z,-2.9
2019-01-11T00:24:03.174Z,-2.9
2019-01-11T00:25:02.949Z,-2.9
2019-01-11T00:26:03.448Z,-2.9
2019-01-11T00:27:03.046Z,-2.9
2019-01-11T00:28:03.444Z,-3
2019-01-11T00:29:03.011Z,-3
2019-01-11T00:30:03.568Z,-3
2019-01-11T00:31:02.712Z,-3
2019-01-11T00:32:03.185Z,-3
2019-01-11T00:33:03.340Z,-3
2019-01-11T00:34:03.390Z,-3
2019-01-11T00:35:02.864Z,-3.1
2019-01-11T00:36:03.074Z,-3.1
2019-01-11T00:37:02.221Z,-3.1
2019-01-11T00:38:03.281Z,-3.1
2019-01-11T00:39:01.792Z,-3
2019-01-11T00:40:03.467Z,-3.1
2019-01-11T00:41:03.167Z,-3.1
2019-01-11T00:42:02.922Z,-3.1
2019-01-11T00:43:03.511Z,-3.1
2019-01-11T00:44:02.969Z,-3.1
2019-01-11T00:45:03.516Z,-3.1
2019-01-11T00:46:03.575Z,-3
2019-01-11T00:47:02.877Z,-3.1
2019-01-11T00:48:02.929Z,-3.1
2019-01-11T00:49:02.556Z,-3.1
2019-01-11T00:50:02.895Z,-3.1
2019-01-11T00:51:03.087Z,-3.1
2019-01-11T00:52:02.754Z,-3.1
2019-01-11T00:53:02.619Z,-3.1
2019-01-11T00:54:02.810Z,-3.1
2019-01-11T00:55:03.744Z,-3.1
2019-01-11T00:56:03.316Z,-3.1
2019-01-11T00:57:03.546Z,-3.1
2019-01-11T00:58:02.501Z,-3.1
2019-01-11T00:59:03.461Z,-3
2019-01-11T01:00:03.409Z,-3.1
2019-01-11T01:01:01.828Z,-3.1
2019-01-11T01:02:02.935Z,-3.1
2019-01-11T01:03:01.594Z,-3.1
2019-01-11T01:04:03.554Z,-3.1
2019-01-11T01:05:02.968Z,-3
2019-01-11T01:06:02.769Z,-3.1
2019-01-11T01:07:02.870Z,-3.1
2019-01-11T01:08:03.530Z,-3.1
2019-01-11T01:09:02.917Z,-3.1
2019-01-11T01:10:02.768Z,-3.1
2019-01-11T01:11:02.634Z,-3.1
2019-01-11T01:12:02.855Z,-3
2019-01-11T01:13:02.841Z,-3
2019-01-11T01:14:03.204Z,-2.9
2019-01-11T01:15:02.775Z,-3
2019-01-11T01:16:02.964Z,-3
2019-01-11T01:17:03.159Z,-3
2019-01-11T01:18:02.720Z,-3
2019-01-11T01:19:02.855Z,-3
2019-01-11T01:20:03.605Z,-3.1
2019-01-11T01:21:03.147Z,-3.1
2019-01-11T01:22:02.641Z,-3
2019-01-11T01:23:02.652Z,-3
2019-01-11T01:24:02.864Z,-3.1
2019-01-11T01:25:03.007Z,-3.1
2019-01-11T01:26:03.032Z,-3.1
2019-01-11T01:27:03.502Z,-3.1
2019-01-11T01:28:03.516Z,-3
2019-01-11T01:29:03.352Z,-3
2019-01-11T01:30:03.225Z,-3
2019-01-11T01:31:02.912Z,-3
2019-01-11T01:32:03.000Z,-3
2019-01-11T01:33:22.580Z,-3
2019-01-11T01:34:03.512Z,-3
2019-01-11T01:35:02.578Z,-3
2019-01-11T01:36:02.097Z,-3
2019-01-11T01:37:03.204Z,-2.9
2019-01-11T01:38:03.538Z,-3
2019-01-11T01:39:03.046Z,-3
2019-01-11T01:40:02.719Z,-3
2019-01-11T01:41:02.839Z,-3
2019-01-11T01:42:02.944Z,-2.9
2019-01-11T01:43:03.069Z,-2.9
2019-01-11T01:44:02.815Z,-3
2019-01-11T01:45:03.355Z,-3
2019-01-11T01:46:02.781Z,-2.9
2019-01-11T01:47:02.703Z,-3
2019-01-11T01:48:02.688Z,-3
2019-01-11T01:49:03.194Z,-2.9
2019-01-11T01:50:03.006Z,-2.9
2019-01-11T01:51:02.890Z,-2.9
2019-01-11T01:52:02.907Z,-2.9
2019-01-11T01:53:02.955Z,-2.9
2019-01-11T01:54:02.347Z,-2.9
2019-01-11T01:55:03.114Z,-2.9
2019-01-11T01:56:03.484Z,-2.9
2019-01-11T01:57:02.953Z,-2.9
2019-01-11T01:58:03.169Z,-2.9
2019-01-11T01:59:03.208Z,-2.9
2019-01-11T02:00:03.693Z,-2.9
2019-01-11T02:01:03.243Z,-2.9
2019-01-11T02:02:02.632Z,-2.9
2019-01-11T02:03:02.664Z,-2.9
2019-01-11T02:04:03.429Z,-2.9
2019-01-11T02:05:03.286Z,-2.9
2019-01-11T02:06:03.140Z,-2.9
2019-01-11T02:07:02.677Z,-2.9
2019-01-11T02:08:03.277Z,-2.9
2019-01-11T02:09:03.253Z,-2.9
2019-01-11T02:10:03.636Z,-2.9
2019-01-11T02:11:03.472Z,-2.9
2019-01-11T02:12:02.906Z,-2.9
2019-01-11T02:13:02.918Z,-2.9
2019-01-11T02:14:02.974Z,-2.9
2019-01-11T02:15:03.486Z,-2.9
2019-01-11T02:16:03.060Z,-2.9
2019-01-11T02:17:03.606Z,-2.9
2019-01-11T02:18:02.970Z,-2.9
2019-01-11T02:19:03.460Z,-2.9
2019-01-11T02:20:03.558Z,-3
2019-01-11T02:21:02.954Z,-3
2019-01-11T02:22:03.612Z,-3
2019-01-11T02:23:01.650Z,-3
2019-01-11T02:24:02.849Z,-3
2019-01-11T02:25:03.498Z,-3.1
2019-01-11T02:26:02.750Z,-3.1
2019-01-11T02:27:03.683Z,-3.1
2019-01-11T02:28:03.379Z,-3.1
2019-01-11T02:29:03.011Z,-3.1
2019-01-11T02:30:03.014Z,-3.1
2019-01-11T02:31:03.056Z,-3.1
2019-01-11T02:32:02.983Z,-3
2019-01-11T02:33:03.333Z,-3
2019-01-11T02:34:03.239Z,-3
2019-01-11T02:35:03.188Z,-3
2019-01-11T02:36:02.910Z,-3
2019-01-11T02:37:03.023Z,-3
2019-01-11T02:38:02.931Z,-3
2019-01-11T02:39:02.813Z,-3.1
2019-01-11T02:40:03.637Z,-3.1
2019-01-11T02:41:03.002Z,-3.1
2019-01-11T02:42:02.805Z,-3.1
2019-01-11T02:43:03.110Z,-3.1
2019-01-11T02:44:01.731Z,-3.1
2019-01-11T02:45:03.181Z,-3.1
2019-01-11T02:46:01.687Z,-3.1
2019-01-11T02:47:02.959Z,-3.1
2019-01-11T02:48:03.607Z,-3.1
2019-01-11T02:49:03.721Z,-3.1
2019-01-11T02:50:03.660Z,-3.1
2019-01-11T02:51:02.828Z,-3.1
2019-01-11T02:52:03.079Z,-3.1
2019-01-11T02:53:03.052Z,-3.1
2019-01-11T02:54:03.105Z,-3.1
2019-01-11T02:55:03.309Z,-3.1
2019-01-11T02:56:03.251Z,-3.1
2019-01-11T02:57:03.593Z,-3.1
2019-01-11T02:58:03.074Z,-3.1
2019-01-11T02:59:03.118Z,-3.1
2019-01-11T03:00:02.743Z,-3.1
2019-01-11T03:01:03.112Z,-3.1
2019-01-11T03:02:02.530Z,-3.1
2019-01-11T03:03:03.078Z,-3.1
2019-01-11T03:04:03.367Z,-3.1
2019-01-11T03:05:03.486Z,-3.1
2019-01-11T03:06:02.756Z,-3.1
2019-01-11T03:07:03.137Z,-3.1
2019-01-11T03:08:02.586Z,-3.1
2019-01-11T03:09:02.981Z,-3.1
2019-01-11T03:10:02.912Z,-3.1
2019-01-11T03:11:02.867Z,-3.1
2019-01-11T03:12:03.292Z,-3.2
2019-01-11T03:13:03.458Z,-3.2
2019-01-11T03:14:03.371Z,-3.2
2019-01-11T03:15:03.136Z,-3.1
2019-01-11T03:16:03.032Z,-3.2
2019-01-11T03:17:03.232Z,-3.2
2019-01-11T03:18:03.028Z,-3.2
2019-01-11T03:19:03.388Z,-3.2
2019-01-11T03:20:03.077Z,-3.3
2019-01-11T03:21:03.145Z,-3.3
2019-01-11T03:22:03.141Z,-3.3
2019-01-11T03:23:03.505Z,-3.3
2019-01-11T03:24:03.011Z,-3.3
2019-01-11T03:25:03.188Z,-3.3
2019-01-11T03:26:03.078Z,-3.4
2019-01-11T03:27:03.494Z,-3.4
2019-01-11T03:28:03.274Z,-3.4
2019-01-11T03:29:03.127Z,-3.4
2019-01-11T03:30:03.387Z,-3.4
2019-01-11T03:31:03.228Z,-3.7
2019-01-11T03:32:03.384Z,-4
2019-01-11T03:33:03.172Z,-4
2019-01-11T03:34:02.727Z,-3.8
2019-01-11T03:35:03.085Z,-3.9
2019-01-11T03:36:02.832Z,-4.4
2019-01-11T03:37:01.841Z,-4.4
2019-01-11T03:38:02.738Z,-4.4
2019-01-11T03:39:03.349Z,-4.3
2019-01-11T03:40:03.383Z,-4.3
2019-01-11T03:41:02.693Z,-4.1
2019-01-11T03:42:03.343Z,-4.1
2019-01-11T03:43:03.516Z,-4.1
2019-01-11T03:44:03.530Z,-4.1
2019-01-11T03:45:03.015Z,-4.2
2019-01-11T03:46:02.700Z,-4.3
2019-01-11T03:47:03.497Z,-4.4
2019-01-11T03:48:02.944Z,-4.3
2019-01-11T03:49:02.896Z,-4.3
2019-01-11T03:50:03.109Z,-4.7
2019-01-11T03:51:03.283Z,-4.7
2019-01-11T03:52:02.820Z,-4.7
2019-01-11T03:53:02.733Z,-4.5
2019-01-11T03:54:03.239Z,-4.8
2019-01-11T03:55:02.882Z,-4.8
2019-01-11T03:56:03.056Z,-4.6
2019-01-11T03:57:02.697Z,-4.6
2019-01-11T03:58:03.523Z,-4.6
2019-01-11T03:59:01.609Z,-4.5
2019-01-11T04:00:02.940Z,-4.6
2019-01-11T04:01:02.052Z,-4.6
2019-01-11T04:02:03.373Z,-4.5
2019-01-11T04:03:03.077Z,-4.5
2019-01-11T04:04:03.415Z,-4.4
2019-01-11T04:05:02.778Z,-4.4
2019-01-11T04:06:02.817Z,-4.3
2019-01-11T04:07:02.887Z,-4.3
2019-01-11T04:08:02.715Z,-4.3
2019-01-11T04:09:02.933Z,-4.2
2019-01-11T04:10:03.019Z,-4.1
2019-01-11T04:11:02.992Z,-4.2
2019-01-11T04:12:03.331Z,-4.1
2019-01-11T04:13:02.972Z,-4.1
2019-01-11T04:14:03.368Z,-4.1
2019-01-11T04:15:03.595Z,-4.1
2019-01-11T04:16:02.818Z,-4.1
2019-01-11T04:17:02.684Z,-4.1
2019-01-11T04:18:03.137Z,-4.1
2019-01-11T04:19:03.170Z,-4.1
2019-01-11T04:20:03.003Z,-4.1
2019-01-11T04:21:02.561Z,-4.1
2019-01-11T04:22:03.473Z,-4.1
2019-01-11T04:23:03.064Z,-4.1
2019-01-11T04:24:03.283Z,-4.1
2019-01-11T04:25:03.072Z,-4.1
2019-01-11T04:26:03.225Z,-3.9
2019-01-11T04:27:03.410Z,-3.9
2019-01-11T04:28:04.285Z,-3.9
2019-01-11T04:29:02.818Z,-3.9
2019-01-11T04:30:03.312Z,-3.9
2019-01-11T04:31:02.841Z,-3.9
2019-01-11T04:32:03.004Z,-3.9
2019-01-11T04:33:03.167Z,-3.9
2019-01-11T04:34:02.967Z,-3.9
2019-01-11T04:35:03.092Z,-3.9
2019-01-11T04:36:03.593Z,-3.8
2019-01-11T04:37:03.914Z,-3.8
2019-01-11T04:38:02.560Z,-3.8
2019-01-11T04:39:02.532Z,-3.8
2019-01-11T04:40:03.668Z,-3.8
2019-01-11T04:41:02.899Z,-3.7
2019-01-11T04:42:03.060Z,-3.7
2019-01-11T04:43:02.200Z,-3.6
2019-01-11T04:44:01.646Z,-3.6
2019-01-11T04:45:03.512Z,-3.6
2019-01-11T04:46:03.367Z,-3.6
2019-01-11T04:47:03.008Z,-3.6
2019-01-11T04:48:03.180Z,-3.6
2019-01-11T04:49:03.671Z,-3.6
2019-01-11T04:50:10.023Z,-3.5
2019-01-11T04:51:03.197Z,-3.5
2019-01-11T04:52:03.330Z,-3.6
2019-01-11T04:53:03.347Z,-3.6
2019-01-11T04:54:03.293Z,-3.6
2019-01-11T04:55:03.644Z,-3.6
2019-01-11T04:56:03.065Z,-3.6
2019-01-11T04:57:03.232Z,-3.6
2019-01-11T04:58:03.879Z,-3.6
2019-01-11T04:59:02.823Z,-3.5
2019-01-11T05:00:03.239Z,-3.6
2019-01-11T05:01:02.928Z,-3.6
2019-01-11T05:02:02.909Z,-3.6
2019-01-11T05:03:03.078Z,-3.6
2019-01-11T05:04:02.925Z,-3.6
2019-01-11T05:05:02.961Z,-3.8
2019-01-11T05:06:03.495Z,-3.9
2019-01-11T05:07:03.298Z,-3.8
2019-01-11T05:08:02.779Z,-3.7
2019-01-11T05:09:02.658Z,-3.6
2019-01-11T05:10:03.372Z,-3.7
2019-01-11T05:11:03.191Z,-3.6
2019-01-11T05:12:03.243Z,-3.6
2019-01-11T05:13:03.406Z,-3.6
2019-01-11T05:14:02.757Z,-3.6
2019-01-11T05:15:03.531Z,-3.6
2019-01-11T05:16:02.864Z,-3.6
2019-01-11T05:17:03.099Z,-3.7
2019-01-11T05:18:03.530Z,-3.7
2019-01-11T05:19:03.277Z,-3.8
2019-01-11T05:20:02.839Z,-3.7
2019-01-11T05:21:02.731Z,-3.7
2019-01-11T05:22:02.802Z,-3.7
2019-01-11T05:23:02.738Z,-3.6
2019-01-11T05:24:02.960Z,-3.6
2019-01-11T05:25:02.612Z,-3.7
2019-01-11T05:26:02.556Z,-3.7
2019-01-11T05:27:03.220Z,-3.7
2019-01-11T05:28:01.940Z,-3.7
2019-01-11T05:29:02.730Z,-3.7
2019-01-11T05:30:02.954Z,-3.7
2019-01-11T05:31:03.296Z,-3.7
2019-01-11T05:32:03.179Z,-3.7
2019-01-11T05:33:02.844Z,-3.7
2019-01-11T05:34:02.831Z,-3.7
2019-01-11T05:35:02.747Z,-3.8
2019-01-11T05:36:03.392Z,-3.8
2019-01-11T05:37:02.863Z,-3.8
2019-01-11T05:38:03.450Z,-3.8
2019-01-11T05:39:02.859Z,-3.8
2019-01-11T05:40:03.356Z,-3.8
2019-01-11T05:41:02.756Z,-3.8
2019-01-11T05:42:02.789Z,-3.9
2019-01-11T05:43:03.331Z,-3.9
2019-01-11T05:44:02.672Z,-3.9
2019-01-11T05:45:02.946Z,-3.9
2019-01-11T05:46:03.521Z,-3.9
2019-01-11T05:47:02.881Z,-3.9
2019-01-11T05:48:03.315Z,-3.9
2019-01-11T05:49:03.566Z,-3.9
2019-01-11T05:50:02.807Z,-3.8
2019-01-11T05:51:02.756Z,-3.9
2019-01-11T05:52:03.234Z,-3.9
2019-01-11T05:53:02.777Z,-3.9
2019-01-11T05:54:02.680Z,-3.9
2019-01-11T05:55:03.469Z,-3.9
2019-01-11T05:56:03.151Z,-3.9
2019-01-11T05:57:03.325Z,-3.9
2019-01-11T05:58:03.064Z,-3.9
2019-01-11T05:59:03.162Z,-3.9
2019-01-11T06:00:02.972Z,-3.9
2019-01-11T06:01:02.774Z,-4
2019-01-11T06:02:02.960Z,-4
2019-01-11T06:03:02.794Z,-4
2019-01-11T06:04:03.548Z,-4
2019-01-11T06:05:02.804Z,-4.1
2019-01-11T06:06:03.316Z,-4.1
2019-01-11T06:07:02.811Z,-4.1
2019-01-11T06:08:03.570Z,-4
2019-01-11T06:09:03.362Z,-4.1
2019-01-11T06:10:03.286Z,-4.1
2019-01-11T06:11:03.483Z,-4.1
2019-01-11T06:12:02.601Z,-4.1
2019-01-11T06:13:03.409Z,-4.1
2019-01-11T06:14:02.201Z,-4.1
2019-01-11T06:15:01.735Z,-4
2019-01-11T06:16:03.326Z,-3.9
2019-01-11T06:17:02.558Z,-4
2019-01-11T06:18:03.370Z,-3.9
2019-01-11T06:19:03.398Z,-3.9
2019-01-11T06:20:02.812Z,-3.9
2019-01-11T06:21:02.533Z,-3.9
2019-01-11T06:22:03.285Z,-3.9
2019-01-11T06:23:02.924Z,-3.9
2019-01-11T06:24:03.198Z,-3.9
2019-01-11T06:25:02.923Z,-3.9
2019-01-11T06:26:03.658Z,-3.9
2019-01-11T06:27:03.503Z,-3.9
2019-01-11T06:28:03.191Z,-3.9
2019-01-11T06:29:03.258Z,-3.9
2019-01-11T06:30:03.354Z,-3.9
2019-01-11T06:31:03.185Z,-3.9
2019-01-11T06:32:03.011Z,-3.8
2019-01-11T06:33:02.788Z,-3.8
2019-01-11T06:34:02.851Z,-3.8
2019-01-11T06:35:02.817Z,-3.8
2019-01-11T06:36:03.009Z,-3.7
2019-01-11T06:37:02.646Z,-3.7
2019-01-11T06:38:02.536Z,-3.8
2019-01-11T06:39:02.787Z,-3.8
2019-01-11T06:40:03.476Z,-3.8
2019-01-11T06:41:03.388Z,-3.8
2019-01-11T06:42:02.846Z,-3.8
2019-01-11T06:43:03.910Z,-3.8
2019-01-11T06:44:03.194Z,-3.8
2019-01-11T06:45:02.868Z,-3.8
2019-01-11T06:46:03.286Z,-3.8
2019-01-11T06:47:02.882Z,-3.8
2019-01-11T06:48:03.206Z,-3.8
2019-01-11T06:49:03.294Z,-3.8
2019-01-11T06:50:03.380Z,-3.8
2019-01-11T06:51:02.735Z,-3.8
2019-01-11T06:52:02.625Z,-3.8
2019-01-11T06:53:03.389Z,-3.8
2019-01-11T06:54:02.835Z,-3.8
2019-01-11T06:55:02.842Z,-3.8
2019-01-11T06:56:02.645Z,-3.8
2019-01-11T06:57:03.678Z,-3.8
2019-01-11T06:58:03.427Z,-3.8
2019-01-11T06:59:03.317Z,-3.8
2019-01-11T07:00:03.058Z,-3.8
2019-01-11T07:01:02.271Z,-3.8
2019-01-11T07:02:02.936Z,-3.8
2019-01-11T07:03:01.714Z,-3.8
2019-01-11T07:04:03.167Z,-3.8
2019-01-11T07:05:03.612Z,-3.9
2019-01-11T07:06:02.918Z,-3.9
2019-01-11T07:07:03.318Z,-3.9
2019-01-11T07:08:03.252Z,-3.9
2019-01-11T07:09:03.454Z,-3.9
2019-01-11T07:10:03.434Z,-3.8
2019-01-11T07:11:02.975Z,-3.9
2019-01-11T07:12:03.221Z,-3.9
2019-01-11T07:13:02.672Z,-4.3
2019-01-11T07:14:03.466Z,-4.4
2019-01-11T07:15:03.213Z,-4.4
2019-01-11T07:16:03.627Z,-4.4
2019-01-11T07:17:03.491Z,-4.8
2019-01-11T07:18:02.919Z,-4.9
2019-01-11T07:19:03.335Z,-4.6
2019-01-11T07:20:06.031Z,-4.6
2019-01-11T07:21:03.454Z,-4.2
2019-01-11T07:22:03.283Z,-4.3
2019-01-11T07:23:02.797Z,-4.6
2019-01-11T07:24:02.983Z,-4.8
2019-01-11T07:25:03.749Z,-4.8
2019-01-11T07:26:02.162Z,-5.3
2019-01-11T07:27:03.346Z,-5.2
2019-01-11T07:28:01.765Z,-5.1
2019-01-11T07:29:03.469Z,-4.9
2019-01-11T07:30:02.913Z,-4.6
2019-01-11T07:31:03.132Z,-4.6
2019-01-11T07:32:03.081Z,-4.4
2019-01-11T07:33:02.666Z,-4.4
2019-01-11T07:34:03.084Z,-4.4
2019-01-11T07:35:03.055Z,-4.4
2019-01-11T07:36:02.978Z,-4.3
2019-01-11T07:37:03.509Z,-4.4
2019-01-11T07:38:03.275Z,-4.3
2019-01-11T07:39:03.411Z,-4.2
2019-01-11T07:40:03.093Z,-4.2
2019-01-11T07:41:02.740Z,-4.2
2019-01-11T07:42:03.360Z,-4.3
2019-01-11T07:43:02.926Z,-4.3
2019-01-11T07:44:02.969Z,-4.3
2019-01-11T07:45:03.438Z,-4.1
2019-01-11T07:46:03.021Z,-4.1
2019-01-11T07:47:02.777Z,-4.1
2019-01-11T07:48:02.526Z,-3.9
2019-01-11T07:49:03.164Z,-3.9
2019-01-11T07:50:01.649Z,-3.8
2019-01-11T07:51:03.310Z,-3.7
2019-01-11T07:52:03.547Z,-3.7
2019-01-11T07:53:03.212Z,-3.6
2019-01-11T07:54:02.697Z,-3.6
2019-01-11T07:55:02.811Z,-3.5
2019-01-11T07:56:03.039Z,-3.5
2019-01-11T07:57:03.394Z,-3.4
2019-01-11T07:58:03.266Z,-3.4
2019-01-11T07:59:03.579Z,-3.4
2019-01-11T08:00:02.895Z,-3.4
2019-01-11T08:01:02.934Z,-3.4
2019-01-11T08:02:03.425Z,-3.4
2019-01-11T08:03:02.638Z,-3.4
2019-01-11T08:04:03.441Z,-3.4
2019-01-11T08:05:02.668Z,-3.4
2019-01-11T08:06:03.372Z,-3.4
2019-01-11T08:07:02.807Z,-3.3
2019-01-11T08:08:02.659Z,-3.3
2019-01-11T08:09:03.069Z,-3.3
2019-01-11T08:10:02.834Z,-3.3
2019-01-11T08:11:02.810Z,-3.3
2019-01-11T08:12:03.144Z,-3.3
2019-01-11T08:13:01.903Z,-3.3
2019-01-11T08:14:03.486Z,-3.3
2019-01-11T08:15:02.977Z,-3.3
2019-01-11T08:16:03.000Z,-3.3
2019-01-11T08:17:02.749Z,-3.3
2019-01-11T08:18:03.301Z,-3.3
2019-01-11T08:19:03.087Z,-3.3
2019-01-11T08:20:03.573Z,-3.2
2019-01-11T08:21:03.411Z,-3.2
2019-01-11T08:22:03.074Z,-3.2
2019-01-11T08:23:02.986Z,-3.2
2019-01-11T08:24:03.435Z,-3.2
2019-01-11T08:25:03.484Z,-3.2
2019-01-11T08:26:02.806Z,-3.1
2019-01-11T08:27:02.848Z,-3.1
2019-01-11T08:28:03.148Z,-3.1
2019-01-11T08:29:03.215Z,-3.1
2019-01-11T08:30:03.249Z,-3.1
2019-01-11T08:31:02.908Z,-3.1
2019-01-11T08:32:03.443Z,-3
2019-01-11T08:33:03.250Z,-3
2019-01-11T08:34:02.808Z,-3
2019-01-11T08:35:02.724Z,-2.9
2019-01-11T08:36:02.720Z,-2.9
2019-01-11T08:37:01.907Z,-2.9
2019-01-11T08:38:02.685Z,-2.9
2019-01-11T08:39:03.098Z,-2.9
2019-01-11T08:40:02.807Z,-2.9
2019-01-11T08:41:02.786Z,-2.9
2019-01-11T08:42:03.207Z,-2.9
2019-01-11T08:43:03.393Z,-2.9
2019-01-11T08:44:03.095Z,-2.9
2019-01-11T08:45:03.411Z,-2.8
2019-01-11T08:46:02.868Z,-2.8
2019-01-11T08:47:03.314Z,-2.8
2019-01-11T08:48:03.226Z,-2.8
2019-01-11T08:49:03.358Z,-2.8
2019-01-11T08:50:03.325Z,-2.8
2019-01-11T08:51:03.156Z,-2.8
2019-01-11T08:52:02.901Z,-2.7
2019-01-11T08:53:02.781Z,-2.7
2019-01-11T08:54:02.773Z,-2.7
2019-01-11T08:55:02.944Z,-2.8
2019-01-11T08:56:08.797Z,-2.8
2019-01-11T08:57:03.278Z,-2.8
2019-01-11T08:58:03.227Z,-2.8
2019-01-11T08:59:01.559Z,-2.8
2019-01-11T09:00:03.277Z,-2.8
2019-01-11T09:01:03.456Z,-2.8
2019-01-11T09:02:03.330Z,-2.8
2019-01-11T09:03:03.089Z,-2.8
2019-01-11T09:04:03.529Z,-2.8
2019-01-11T09:05:03.597Z,-2.6
2019-01-11T09:06:02.723Z,-2.7
2019-01-11T09:07:03.215Z,-2.6
2019-01-11T09:08:03.053Z,-2.6
2019-01-11T09:09:03.575Z,-2.6
2019-01-11T09:10:02.835Z,-2.7
2019-01-11T09:11:03.392Z,-2.7
2019-01-11T09:12:02.818Z,-2.7
2019-01-11T09:13:03.315Z,-2.7
2019-01-11T09:14:03.076Z,-2.6
2019-01-11T09:15:03.344Z,-2.6
2019-01-11T09:16:04.040Z,-2.6
2019-01-11T09:17:03.437Z,-2.6
2019-01-11T09:18:03.636Z,-2.6
2019-01-11T09:19:02.757Z,-2.6
2019-01-11T09:20:02.758Z,-2.6
2019-01-11T09:21:02.127Z,-2.6
2019-01-11T09:22:02.933Z,-2.6
2019-01-11T09:23:02.815Z,-2.5
2019-01-11T09:24:03.356Z,-2.5
2019-01-11T09:25:02.885Z,-2.4
2019-01-11T09:26:03.398Z,-2.4
2019-01-11T09:27:03.138Z,-2.4
2019-01-11T09:28:03.030Z,-2.4
2019-01-11T09:29:03.088Z,-2.4
2019-01-11T09:30:02.868Z,-2.4
2019-01-11T09:31:03.050Z,-2.3
2019-01-11T09:32:02.747Z,-2.3
2019-01-11T09:33:02.711Z,-2.3
2019-01-11T09:34:03.346Z,-2.3
2019-01-11T09:35:03.370Z,-2.2
2019-01-11T09:36:02.813Z,-2.3
2019-01-11T09:37:03.422Z,-2.3
2019-01-11T09:38:03.387Z,-2.1
2019-01-11T09:39:02.704Z,-2
2019-01-11T09:40:03.802Z,-1.9
2019-01-11T09:41:02.688Z,-1.9
2019-01-11T09:42:02.908Z,-1.9
2019-01-11T09:43:03.569Z,-1.9
2019-01-11T09:44:03.338Z,-1.9
2019-01-11T09:45:03.413Z,-1.9
2019-01-11T09:46:02.638Z,-1.8
2019-01-11T09:47:03.192Z,-1.8
2019-01-11T09:48:01.608Z,-1.8
2019-01-11T09:49:03.354Z,-1.7
2019-01-11T09:50:02.514Z,-1.6
2019-01-11T09:51:03.255Z,-1.6
2019-01-11T09:52:02.981Z,-1.5
2019-01-11T09:53:02.717Z,-1.5
2019-01-11T09:54:02.774Z,-1.6
2019-01-11T09:55:02.731Z,-1.6
2019-01-11T09:56:03.201Z,-1.6
2019-01-11T09:57:02.708Z,-1.5
2019-01-11T09:58:02.942Z,-1.5
2019-01-11T09:59:02.973Z,-1.5
2019-01-11T10:00:03.550Z,-1.4
2019-01-11T10:01:03.254Z,-1.3
2019-01-11T10:02:03.016Z,-1.3
2019-01-11T10:03:02.891Z,-1.3
2019-01-11T10:04:02.802Z,-1.3
2019-01-11T10:05:02.683Z,-1.1
2019-01-11T10:06:03.521Z,-1.1
2019-01-11T10:07:03.075Z,-1.2
2019-01-11T10:08:03.475Z,-1.2
2019-01-11T10:09:03.249Z,-1.2
2019-01-11T10:10:03.756Z,-1.3
2019-01-11T10:11:02.944Z,-1.3
2019-01-11T10:12:02.530Z,-1.3
2019-01-11T10:13:03.456Z,-1.4
2019-01-11T10:14:03.513Z,-1.3
2019-01-11T10:15:03.133Z,-1.3
2019-01-11T10:16:02.980Z,-1.3
2019-01-11T10:17:02.786Z,-1.3
2019-01-11T10:18:02.820Z,-1.4
2019-01-11T10:19:02.919Z,-1.4
2019-01-11T10:20:02.879Z,-1.4
2019-01-11T10:21:02.588Z,-1.3
2019-01-11T10:22:02.741Z,-1.3
2019-01-11T10:23:02.897Z,-1.3
2019-01-11T10:24:02.823Z,-1.3
2019-01-11T10:25:03.480Z,-1.3
2019-01-11T10:26:03.477Z,-1.3
2019-01-11T10:27:03.577Z,-1.1
2019-01-11T10:28:03.194Z,-1.1
2019-01-11T10:29:02.941Z,-1.1
2019-01-11T10:30:03.323Z,-1.1
2019-01-11T10:31:03.376Z,-1.1
2019-01-11T10:32:03.513Z,-1.1
2019-01-11T10:33:03.232Z,-1.1
2019-01-11T10:34:03.075Z,-1.1
2019-01-11T10:35:02.744Z,-1.1
2019-01-11T10:36:02.712Z,-1
2019-01-11T10:37:03.024Z,-1
2019-01-11T10:38:02.872Z,-0.9
2019-01-11T10:39:02.719Z,-0.9
2019-01-11T10:40:02.073Z,-0.9
2019-01-11T10:41:02.486Z,-0.9
2019-01-11T10:42:03.358Z,-1
2019-01-11T10:43:02.415Z,-0.9
2019-01-11T10:44:02.937Z,-0.9
2019-01-11T10:45:03.261Z,-0.8
2019-01-11T10:46:02.945Z,-0.8
2019-01-11T10:47:03.621Z,-0.8
2019-01-11T10:48:02.814Z,-0.8
2019-01-11T10:49:02.993Z,-0.8
2019-01-11T10:50:03.631Z,-0.9
2019-01-11T10:51:02.856Z,-0.8
2019-01-11T10:52:03.268Z,-0.8
2019-01-11T10:53:02.663Z,-0.8
2019-01-11T10:54:03.325Z,-0.8
2019-01-11T10:55:03.156Z,-0.8
2019-01-11T10:56:03.036Z,-0.9
2019-01-11T10:57:02.625Z,-0.9
2019-01-11T10:58:03.113Z,-0.8
2019-01-11T10:59:02.760Z,-0.8
2019-01-11T11:00:03.015Z,-0.6
2019-01-11T11:01:03.553Z,-0.6
2019-01-11T11:02:03.526Z,-0.6
2019-01-11T11:03:03.355Z,-0.6
2019-01-11T11:04:03.352Z,-0.5
2019-01-11T11:05:03.043Z,-0.6
2019-01-11T11:06:03.276Z,-0.6
2019-01-11T11:07:02.862Z,-0.6
2019-01-11T11:08:03.088Z,-0.6
2019-01-11T11:09:02.941Z,-0.6
2019-01-11T11:10:02.633Z,-0.8
2019-01-11T11:11:03.497Z,-0.8
2019-01-11T11:12:02.899Z,-0.8
2019-01-11T11:13:03.183Z,-0.8
2019-01-11T11:14:03.086Z,-0.8
2019-01-11T11:15:02.737Z,-0.8
2019-01-11T11:16:03.124Z,-0.8
2019-01-11T11:17:03.128Z,-0.8
2019-01-11T11:18:02.946Z,-0.7
2019-01-11T11:19:03.396Z,-0.8
2019-01-11T11:20:02.838Z,-0.8
2019-01-11T11:21:03.248Z,-0.8
2019-01-11T11:22:03.011Z,-0.8
2019-01-11T11:23:02.549Z,-0.8
2019-01-11T11:24:02.754Z,-0.8
2019-01-11T11:25:02.808Z,-0.8
2019-01-11T11:26:03.538Z,-0.8
2019-01-11T11:27:01.964Z,-0.7
2019-01-11T11:28:01.448Z,-0.7
2019-01-11T11:29:02.865Z,-0.7
2019-01-11T11:30:03.670Z,-0.8
2019-01-11T11:31:03.554Z,-0.8
2019-01-11T11:32:03.021Z,-0.7
2019-01-11T11:33:03.129Z,-0.6
2019-01-11T11:34:03.462Z,-0.7
2019-01-11T11:35:02.679Z,-0.6
2019-01-11T11:36:03.510Z,-0.6
2019-01-11T11:37:03.071Z,-0.6
2019-01-11T11:38:03.428Z,-0.6
2019-01-11T11:39:03.251Z,-0.6
2019-01-11T11:40:02.646Z,-0.6
2019-01-11T11:41:02.579Z,-0.6
2019-01-11T11:42:03.384Z,-0.6
2019-01-11T11:43:03.206Z,-0.6
2019-01-11T11:44:03.288Z,-0.7
2019-01-11T11:45:03.051Z,-0.7
2019-01-11T11:46:02.740Z,-0.7
2019-01-11T11:47:03.292Z,-0.7
2019-01-11T11:48:03.954Z,-0.7
2019-01-11T11:49:03.254Z,-0.8
2019-01-11T11:50:02.355Z,-0.8
2019-01-11T11:51:02.816Z,-0.8
2019-01-11T11:52:03.348Z,-0.8
2019-01-11T11:53:02.075Z,-0.8
2019-01-11T11:54:03.381Z,-0.9
2019-01-11T11:55:02.987Z,-0.8
2019-01-11T11:56:03.409Z,-0.8
2019-01-11T11:57:03.556Z,-0.8
2019-01-11T11:58:03.625Z,-0.9
2019-01-11T11:59:03.541Z,-0.8
2019-01-11T12:00:02.832Z,-0.8
2019-01-11T12:01:03.369Z,-0.8
2019-01-11T12:02:02.819Z,-0.8
2019-01-11T12:03:02.645Z,-0.9
2019-01-11T12:04:03.507Z,-0.9
2019-01-11T12:05:02.936Z,-0.9
2019-01-11T12:06:03.339Z,-0.9
2019-01-11T12:07:07.560Z,-0.8
2019-01-11T12:08:03.039Z,-0.8
2019-01-11T12:09:02.731Z,-0.8
2019-01-11T12:10:03.635Z,-0.8
2019-01-11T12:11:02.793Z,-0.8
2019-01-11T12:12:02.733Z,-0.9
2019-01-11T12:13:02.721Z,-0.9
2019-01-11T12:14:03.534Z,-0.8
2019-01-11T12:15:03.033Z,-0.9
2019-01-11T12:16:03.456Z,-0.9
2019-01-11T12:17:02.780Z,-0.9
2019-01-11T12:18:03.161Z,-0.9
2019-01-11T12:19:03.538Z,-0.9
2019-01-11T12:20:02.767Z,-0.9
2019-01-11T12:21:03.416Z,-1
2019-01-11T12:22:03.231Z,-1.1
2019-01-11T12:23:02.615Z,-1.1
2019-01-11T12:24:02.931Z,-1.1
2019-01-11T12:25:03.441Z,-1.1
2019-01-11T12:26:03.117Z,-1.1
2019-01-11T12:27:03.268Z,-1.1
2019-01-11T12:28:02.956Z,-1.3
2019-01-11T12:29:03.296Z,-1.3
2019-01-11T12:30:03.065Z,-1.3
2019-01-11T12:31:02.926Z,-1.3
2019-01-11T12:32:03.344Z,-1.3
2019-01-11T12:33:02.684Z,-1.3
2019-01-11T12:34:02.693Z,-1.3
2019-01-11T12:35:02.959Z,-1.3
2019-01-11T12:36:02.715Z,-1.3
2019-01-11T12:37:02.601Z,-1.4
2019-01-11T12:38:01.783Z,-1.4
2019-01-11T12:39:02.651Z,-1.4
2019-01-11T12:40:03.226Z,-1.3
2019-01-11T12:41:03.486Z,-1.3
2019-01-11T12:42:02.917Z,-1.3
2019-01-11T12:43:03.063Z,-1.3
2019-01-11T12:44:04.329Z,-1.4
2019-01-11T12:45:03.559Z,-1.4
2019-01-11T12:46:03.247Z,-1.3
2019-01-11T12:47:03.434Z,-1.4
2019-01-11T12:48:02.930Z,-1.4
2019-01-11T12:49:02.635Z,-1.4
2019-01-11T12:50:03.505Z,-1.3
2019-01-11T12:51:03.225Z,-1.3
2019-01-11T12:52:03.337Z,-1.4
2019-01-11T12:53:03.133Z,-1.3
2019-01-11T12:54:03.404Z,-1.4
2019-01-11T12:55:02.870Z,-1.4
2019-01-11T12:56:03.411Z,-1.4
2019-01-11T12:57:02.328Z,-1.4
2019-01-11T12:58:02.791Z,-1.4
2019-01-11T12:59:02.081Z,-1.3
2019-01-11T13:00:02.585Z,-1.3
2019-01-11T13:01:03.554Z,-1.3
2019-01-11T13:02:03.708Z,-1.4
2019-01-11T13:03:02.620Z,-1.4
2019-01-11T13:04:03.319Z,-1.5
2019-01-11T13:05:03.545Z,-1.5
2019-01-11T13:06:03.534Z,-1.5
2019-01-11T13:07:03.464Z,-1.5
2019-01-11T13:08:03.656Z,-1.5
2019-01-11T13:09:03.335Z,-1.5
2019-01-11T13:10:02.860Z,-1.4
2019-01-11T13:11:03.458Z,-1.4
2019-01-11T13:12:03.309Z,-1.4
2019-01-11T13:13:02.925Z,-1.4
2019-01-11T13:14:02.823Z,-1.4
2019-01-11T13:15:03.425Z,-1.4
2019-01-11T13:16:02.629Z,-1.4
2019-01-11T13:17:03.413Z,-1.4
2019-01-11T13:18:03.165Z,-1.4
2019-01-11T13:19:03.151Z,-1.5
2019-01-11T13:20:02.756Z,-1.5
2019-01-11T13:21:02.776Z,-1.5
2019-01-11T13:22:03.628Z,-1.5